createdAt,value
2019-06-27T00:00:29.282Z,9.87
2019-06-27T00:02:59.745Z,9.97
2019-06-27T00:05:30.871Z,9.87
2019-06-27T00:08:00.474Z,10.07
2019-06-27T00:10:30.063Z,10.60
2019-06-27T00:12:59.644Z,10.00
2019-06-27T00:15:29.241Z,10.00
2019-06-27T00:17:58.819Z,9.67
2019-06-27T00:20:28.423Z,10.57
2019-06-27T00:22:58.014Z,10.17
2019-06-27T00:25:27.589Z,10.00
2019-06-27T00:27:57.254Z,10.50
2019-06-27T00:30:26.993Z,10.00
2019-06-27T00:32:56.580Z,10.20
2019-06-27T00:35:26.535Z,10.27
2019-06-27T00:37:56.121Z,9.63
2019-06-27T00:40:25.719Z,9.40
2019-06-27T00:42:55.314Z,9.63
2019-06-27T00:45:24.904Z,9.53
2019-06-27T00:47:54.505Z,8.60
2019-06-27T00:50:24.229Z,8.70
2019-06-27T00:52:53.808Z,8.60
2019-06-27T00:55:23.398Z,8.60
2019-06-27T00:57:52.985Z,8.83
2019-06-27T01:00:22.703Z,9.13
2019-06-27T01:02:52.307Z,9.03
2019-06-27T01:05:21.910Z,9.23
2019-06-27T01:07:51.495Z,8.67
2019-06-27T01:10:21.584Z,8.77
2019-06-27T01:12:52.199Z,8.63
2019-06-27T01:15:21.934Z,8.40
2019-06-27T01:17:51.525Z,9.00
2019-06-27T01:20:21.411Z,8.80
2019-06-27T01:22:51.013Z,8.93
2019-06-27T01:25:20.588Z,7.90
2019-06-27T01:27:50.177Z,8.30
2019-06-27T01:30:20.373Z,8.27
2019-06-27T01:32:49.952Z,8.70
2019-06-27T01:35:19.950Z,8.77
2019-06-27T01:37:49.513Z,8.03
2019-06-27T01:40:19.340Z,8.47
2019-06-27T01:42:49.015Z,9.00
2019-06-27T01:45:39.846Z,8.30
2019-06-27T01:48:09.366Z,8.53
2019-06-27T01:50:38.940Z,8.47
2019-06-27T01:53:08.524Z,8.70
2019-06-27T01:55:38.592Z,8.70
2019-06-27T01:58:08.172Z,8.17
2019-06-27T02:00:37.757Z,8.33
2019-06-27T02:03:07.471Z,9.20
2019-06-27T02:05:37.003Z,7.80
2019-06-27T02:08:06.735Z,8.40
2019-06-27T02:10:36.305Z,8.57
2019-06-27T02:13:05.954Z,8.13
2019-06-27T02:15:35.607Z,8.17
2019-06-27T02:18:05.853Z,8.10
2019-06-27T02:20:37.873Z,8.70
2019-06-27T02:23:07.486Z,8.33
2019-06-27T02:25:37.215Z,9.00
2019-06-27T02:28:06.793Z,7.90
2019-06-27T02:30:40.663Z,7.93
2019-06-27T02:33:10.732Z,8.00
2019-06-27T02:35:42.137Z,9.00
2019-06-27T02:38:11.761Z,7.97
2019-06-27T02:40:41.395Z,8.27
2019-06-27T02:43:10.966Z,8.27
2019-06-27T02:45:40.591Z,8.60
2019-06-27T02:48:10.161Z,8.53
2019-06-27T02:50:39.744Z,7.97
2019-06-27T02:53:09.329Z,8.50
2019-06-27T02:55:38.911Z,7.57
2019-06-27T02:58:28.418Z,7.93
2019-06-27T03:00:39.896Z,8.13
2019-06-27T03:03:09.616Z,8.00
2019-06-27T03:05:39.206Z,7.77
2019-06-27T03:08:08.914Z,7.60
2019-06-27T03:10:38.436Z,8.00
2019-06-27T03:13:08.016Z,7.83
2019-06-27T03:15:37.624Z,7.10
2019-06-27T03:18:07.189Z,7.83
2019-06-27T03:20:36.765Z,8.00
2019-06-27T03:23:06.361Z,8.07
2019-06-27T03:25:35.951Z,7.30
2019-06-27T03:28:05.532Z,7.67
2019-06-27T03:30:35.115Z,7.63
2019-06-27T03:33:04.705Z,8.07
2019-06-27T03:35:34.307Z,7.50
2019-06-27T03:38:03.883Z,7.43
2019-06-27T03:40:34.720Z,7.53
2019-06-27T03:43:05.347Z,7.00
2019-06-27T03:45:34.975Z,7.10
2019-06-27T03:48:04.558Z,6.77
2019-06-27T03:50:34.130Z,7.20
2019-06-27T03:53:03.710Z,6.50
2019-06-27T03:55:33.329Z,7.00
2019-06-27T03:58:02.915Z,7.00
2019-06-27T04:00:34.679Z,6.67
2019-06-27T04:03:04.267Z,7.20
2019-06-27T04:05:33.839Z,6.27
2019-06-27T04:08:03.432Z,7.23
2019-06-27T04:10:33.023Z,6.60
2019-06-27T04:13:02.816Z,6.07
2019-06-27T04:15:33.411Z,6.30
2019-06-27T04:18:03.114Z,6.47
2019-06-27T04:20:32.664Z,5.93
2019-06-27T04:23:02.245Z,6.30
2019-06-27T04:25:31.911Z,5.80
2019-06-27T04:28:01.492Z,6.17
2019-06-27T04:30:33.068Z,6.10
2019-06-27T04:33:02.820Z,6.30
2019-06-27T04:35:32.832Z,5.83
2019-06-27T04:38:02.410Z,5.87
2019-06-27T04:40:36.422Z,5.77
2019-06-27T04:43:06.508Z,5.60
2019-06-27T04:45:36.185Z,5.97
2019-06-27T04:48:05.777Z,5.97
2019-06-27T04:50:35.442Z,5.97
2019-06-27T04:53:05.026Z,5.60
2019-06-27T04:55:34.607Z,5.90
2019-06-27T04:58:04.246Z,6.57
2019-06-27T05:00:33.965Z,5.90
2019-06-27T05:03:03.622Z,5.50
2019-06-27T05:05:33.139Z,5.60
2019-06-27T05:08:02.727Z,5.30
2019-06-27T05:10:32.313Z,5.60
2019-06-27T05:13:02.905Z,6.00
2019-06-27T05:15:32.472Z,6.10
2019-06-27T05:18:02.065Z,5.70
2019-06-27T05:20:31.641Z,5.63
2019-06-27T05:23:01.223Z,5.90
2019-06-27T05:25:30.807Z,5.63
2019-06-27T05:28:00.383Z,5.90
2019-06-27T05:30:57.087Z,5.90
2019-06-27T05:33:01.367Z,7.03
2019-06-27T05:35:31.173Z,5.80
2019-06-27T05:38:00.763Z,6.30
2019-06-27T05:40:30.384Z,5.57
2019-06-27T05:42:59.949Z,5.37
2019-06-27T05:45:29.563Z,5.97
2019-06-27T05:47:59.139Z,5.40
2019-06-27T05:50:28.734Z,5.87
2019-06-27T05:52:58.298Z,5.43
2019-06-27T05:55:27.907Z,5.63
2019-06-27T05:57:57.515Z,6.17
2019-06-27T06:00:29.187Z,5.77
2019-06-27T06:02:58.501Z,5.60
2019-06-27T06:05:28.062Z,5.50
2019-06-27T06:07:57.638Z,5.27
2019-06-27T06:10:27.219Z,5.43
2019-06-27T06:12:56.812Z,5.43
2019-06-27T06:15:26.453Z,5.80
2019-06-27T06:17:57.216Z,5.63
2019-06-27T06:20:26.999Z,5.23
2019-06-27T06:22:56.635Z,5.10
2019-06-27T06:25:26.181Z,5.23
2019-06-27T06:27:55.761Z,4.83
2019-06-27T06:30:25.411Z,5.07
2019-06-27T06:32:55.001Z,5.00
2019-06-27T06:35:24.610Z,5.10
2019-06-27T06:37:54.192Z,5.23
2019-06-27T06:40:25.293Z,5.27
2019-06-27T06:42:59.303Z,4.90
2019-06-27T06:45:26.187Z,4.80
2019-06-27T06:47:55.787Z,5.07
2019-06-27T06:50:25.358Z,4.97
2019-06-27T06:52:54.950Z,4.67
2019-06-27T06:55:24.546Z,4.67
2019-06-27T06:57:54.163Z,4.47
2019-06-27T07:00:24.174Z,4.77
2019-06-27T07:02:53.742Z,4.80
2019-06-27T07:05:23.320Z,4.23
2019-06-27T07:07:53.073Z,4.17
2019-06-27T07:10:22.724Z,3.90
2019-06-27T07:12:52.311Z,4.20
2019-06-27T07:15:21.890Z,4.30
2019-06-27T07:17:51.471Z,3.90
2019-06-27T07:20:21.046Z,4.50
2019-06-27T07:22:50.640Z,4.10
2019-06-27T07:25:20.501Z,4.50
2019-06-27T07:27:50.086Z,4.43
2019-06-27T07:30:19.815Z,3.90
2019-06-27T07:32:49.453Z,3.93
2019-06-27T07:35:19.150Z,4.20
2019-06-27T07:37:48.718Z,4.00
2019-06-27T07:40:18.523Z,3.87
2019-06-27T07:42:48.100Z,3.93
2019-06-27T07:45:18.050Z,3.80
2019-06-27T07:47:47.947Z,3.53
2019-06-27T07:50:18.691Z,4.00
2019-06-27T07:52:48.335Z,4.00
2019-06-27T07:55:20.842Z,4.17
2019-06-27T07:57:50.410Z,4.20
2019-06-27T08:00:20.903Z,4.00
2019-06-27T08:02:50.492Z,4.03
2019-06-27T08:05:20.148Z,4.47
2019-06-27T08:07:49.756Z,4.87
2019-06-27T08:10:19.894Z,4.50
2019-06-27T08:12:49.479Z,4.23
2019-06-27T08:15:19.199Z,3.87
2019-06-27T08:17:48.788Z,4.23
2019-06-27T08:20:18.474Z,3.70
2019-06-27T08:22:48.052Z,3.73
2019-06-27T08:25:18.929Z,3.27
2019-06-27T08:27:48.526Z,3.63
2019-06-27T08:30:18.558Z,3.13
2019-06-27T08:32:48.158Z,3.30
2019-06-27T08:35:17.800Z,3.47
2019-06-27T08:37:47.500Z,3.47
2019-06-27T08:40:17.286Z,3.30
2019-06-27T08:42:46.862Z,2.80
2019-06-27T08:45:16.590Z,3.40
2019-06-27T08:47:46.173Z,3.73
2019-06-27T08:50:17.940Z,3.10
2019-06-27T08:52:47.508Z,3.40
2019-06-27T08:55:17.158Z,3.00
2019-06-27T08:57:46.887Z,2.43
2019-06-27T09:00:16.792Z,2.87
2019-06-27T09:02:46.377Z,3.10
2019-06-27T09:05:16.098Z,2.30
2019-06-27T09:07:45.673Z,2.13
2019-06-27T09:10:15.384Z,2.30
2019-06-27T09:12:45.246Z,2.33
2019-06-27T09:15:15.555Z,2.40
2019-06-27T09:17:45.150Z,2.30
2019-06-27T09:20:16.511Z,2.50
2019-06-27T09:22:46.167Z,2.03
2019-06-27T09:25:15.923Z,2.17
2019-06-27T09:27:45.578Z,2.27
2019-06-27T09:30:16.711Z,1.97
2019-06-27T09:32:46.331Z,2.17
2019-06-27T09:35:15.964Z,2.50
2019-06-27T09:37:45.559Z,1.93
2019-06-27T09:40:15.849Z,2.40
2019-06-27T09:42:45.456Z,2.30
2019-06-27T09:45:15.451Z,2.00
2019-06-27T09:47:45.049Z,2.10
2019-06-27T09:50:15.239Z,1.90
2019-06-27T09:52:44.879Z,2.10
2019-06-27T09:55:15.028Z,1.70
2019-06-27T09:57:44.630Z,2.20
2019-06-27T10:00:15.129Z,2.17
2019-06-27T10:02:44.714Z,2.20
2019-06-27T10:05:16.216Z,2.30
2019-06-27T10:07:47.458Z,2.10
2019-06-27T10:10:17.870Z,1.80
2019-06-27T10:12:49.079Z,1.80
2019-06-27T10:15:19.140Z,1.93
2019-06-27T10:17:48.795Z,1.77
2019-06-27T10:20:19.272Z,2.10
2019-06-27T10:22:48.865Z,2.30
2019-06-27T10:25:18.528Z,1.77
2019-06-27T10:27:48.109Z,1.73
2019-06-27T10:30:19.955Z,1.77
2019-06-27T10:32:58.990Z,1.60
2019-06-27T10:35:22.099Z,1.20
2019-06-27T10:37:51.687Z,1.53
2019-06-27T10:40:21.888Z,1.47
2019-06-27T10:42:51.468Z,1.37
2019-06-27T10:45:21.542Z,1.57
2019-06-27T10:47:51.082Z,1.27
2019-06-27T10:50:21.178Z,1.50
2019-06-27T10:52:50.789Z,1.17
2019-06-27T10:55:20.461Z,1.20
2019-06-27T10:57:50.024Z,1.27
2019-06-27T11:00:19.923Z,1.30
2019-06-27T11:02:49.498Z,1.73
2019-06-27T11:05:19.284Z,1.13
2019-06-27T11:07:48.873Z,1.10
2019-06-27T11:10:18.523Z,1.10
2019-06-27T11:12:48.128Z,0.83
2019-06-27T11:15:17.866Z,0.70
2019-06-27T11:17:48.588Z,0.90
2019-06-27T11:20:18.301Z,0.97
2019-06-27T11:22:48.175Z,1.30
2019-06-27T11:25:17.894Z,1.00
2019-06-27T11:27:47.486Z,0.80
2019-06-27T11:30:19.815Z,0.90
2019-06-27T11:32:49.402Z,0.90
2019-06-27T11:35:19.061Z,0.80
2019-06-27T11:37:48.746Z,0.93
2019-06-27T11:40:18.858Z,1.10
2019-06-27T11:42:48.468Z,0.83
2019-06-27T11:45:18.759Z,1.10
2019-06-27T11:47:48.405Z,1.00
2019-06-27T11:50:18.143Z,1.03
2019-06-27T11:52:48.348Z,1.00
2019-06-27T11:55:18.145Z,0.80
2019-06-27T11:57:47.726Z,1.00
2019-06-27T12:00:18.247Z,0.97
2019-06-27T12:02:47.863Z,1.10
2019-06-27T12:05:17.524Z,0.80
2019-06-27T12:07:47.099Z,1.07
2019-06-27T12:10:17.601Z,1.10
2019-06-27T12:12:47.186Z,0.80
2019-06-27T12:15:17.190Z,1.23
2019-06-27T12:17:47.044Z,0.93
2019-06-27T12:20:17.152Z,0.90
2019-06-27T12:22:46.733Z,1.03
2019-06-27T12:25:17.678Z,0.70
2019-06-27T12:27:47.274Z,1.20
2019-06-27T12:30:18.923Z,0.90
2019-06-27T12:32:52.533Z,0.90
2019-06-27T12:35:21.016Z,0.97
2019-06-27T12:37:51.823Z,0.70
2019-06-27T12:40:22.022Z,1.53
2019-06-27T12:42:51.599Z,1.00
2019-06-27T12:45:21.525Z,0.70
2019-06-27T12:47:51.191Z,1.07
2019-06-27T12:50:21.981Z,0.80
2019-06-27T12:52:51.587Z,0.90
2019-06-27T12:55:21.259Z,0.78
2019-06-27T12:57:50.859Z,0.50
2019-06-27T13:00:20.746Z,1.20
2019-06-27T13:02:50.367Z,0.70
2019-06-27T13:05:20.752Z,0.82
2019-06-27T13:07:50.569Z,0.65
2019-06-27T13:10:22.664Z,1.12
2019-06-27T13:12:52.252Z,0.65
2019-06-27T13:15:23.365Z,0.82
2019-06-27T13:17:52.962Z,0.85
2019-06-27T13:20:22.692Z,0.80
2019-06-27T13:22:52.285Z,1.00
2019-06-27T13:25:21.979Z,0.80
2019-06-27T13:27:52.782Z,1.10
2019-06-27T13:30:23.131Z,0.90
2019-06-27T13:32:52.777Z,1.00
2019-06-27T13:35:22.372Z,1.00
2019-06-27T13:37:51.986Z,0.78
2019-06-27T13:40:21.790Z,1.00
2019-06-27T13:42:55.290Z,0.95
2019-06-27T13:45:26.353Z,1.25
2019-06-27T13:47:54.226Z,0.80
2019-06-27T13:50:23.918Z,1.20
2019-06-27T13:52:54.799Z,0.90
2019-06-27T13:55:24.660Z,1.52
2019-06-27T13:57:57.500Z,1.67
2019-06-27T14:00:41.951Z,1.20
2019-06-27T14:03:11.584Z,1.02
2019-06-27T14:05:41.508Z,1.50
2019-06-27T14:08:11.285Z,1.20
2019-06-27T14:10:40.933Z,1.50
2019-06-27T14:13:10.619Z,1.30
2019-06-27T14:15:40.203Z,1.27
2019-06-27T14:18:09.800Z,1.32
2019-06-27T14:20:39.388Z,1.57
2019-06-27T14:23:08.988Z,1.45
2019-06-27T14:25:38.566Z,1.42
2019-06-27T14:28:08.474Z,1.40
2019-06-27T14:30:38.053Z,1.62
2019-06-27T14:33:07.647Z,1.45
2019-06-27T14:35:37.232Z,1.77
2019-06-27T14:38:06.891Z,1.95
2019-06-27T14:40:37.780Z,1.72
2019-06-27T14:43:07.359Z,1.67
2019-06-27T14:45:37.031Z,1.70
2019-06-27T14:48:08.169Z,2.00
2019-06-27T14:50:38.110Z,2.10
2019-06-27T14:53:07.699Z,1.98
2019-06-27T14:55:38.507Z,2.00
2019-06-27T14:58:08.089Z,2.20
2019-06-27T15:00:37.813Z,2.00
2019-06-27T15:03:07.530Z,2.25
2019-06-27T15:05:37.133Z,2.47
2019-06-27T15:08:06.779Z,2.67
2019-06-27T15:10:36.370Z,1.82
2019-06-27T15:13:05.965Z,2.30
2019-06-27T15:15:35.543Z,2.15
2019-06-27T15:18:06.746Z,2.40
2019-06-27T15:20:37.872Z,2.40
2019-06-27T15:23:08.275Z,2.12
2019-06-27T15:25:37.939Z,2.20
2019-06-27T15:28:07.551Z,2.00
2019-06-27T15:30:37.104Z,1.98
2019-06-27T15:33:06.712Z,2.00
2019-06-27T15:35:50.823Z,1.90
2019-06-27T15:38:07.627Z,1.40
2019-06-27T15:40:37.275Z,1.60
2019-06-27T15:43:08.161Z,1.37
2019-06-27T15:45:37.762Z,1.25
2019-06-27T15:48:07.352Z,1.40
2019-06-27T15:50:38.481Z,1.27
2019-06-27T15:53:08.062Z,1.17
2019-06-27T15:55:37.655Z,1.40
2019-06-27T15:58:07.815Z,1.90
2019-06-27T16:00:39.380Z,1.60
2019-06-27T16:03:08.784Z,1.85
2019-06-27T16:05:39.987Z,3.67
2019-06-27T16:08:09.630Z,1.62
2019-06-27T16:10:39.297Z,1.30
2019-06-27T16:13:08.943Z,1.50
2019-06-27T16:15:40.064Z,1.77
2019-06-27T16:18:09.988Z,1.70
2019-06-27T16:20:39.586Z,2.12
2019-06-27T16:23:09.166Z,1.50
2019-06-27T16:25:38.767Z,2.00
2019-06-27T16:28:08.349Z,1.20
2019-06-27T16:30:38.022Z,1.70
2019-06-27T16:33:07.681Z,1.72
2019-06-27T16:35:37.337Z,1.60
2019-06-27T16:38:07.050Z,2.50
2019-06-27T16:40:36.707Z,1.72
2019-06-27T16:43:06.312Z,2.08
2019-06-27T16:45:35.882Z,2.05
2019-06-27T16:48:05.619Z,2.22
2019-06-27T16:50:35.343Z,2.10
2019-06-27T16:53:05.020Z,1.70
2019-06-27T16:55:35.807Z,1.92
2019-06-27T16:58:05.402Z,1.87
2019-06-27T17:00:34.988Z,2.27
2019-06-27T17:03:04.642Z,2.00
2019-06-27T17:05:34.322Z,1.60
2019-06-27T17:08:03.903Z,2.30
2019-06-27T17:10:33.558Z,2.40
2019-06-27T17:13:03.195Z,1.98
2019-06-27T17:15:32.768Z,2.20
2019-06-27T17:18:02.429Z,1.62
2019-06-27T17:20:32.039Z,2.02
2019-06-27T17:23:05.403Z,1.90
2019-06-27T17:25:33.997Z,1.82
2019-06-27T17:28:03.589Z,2.65
2019-06-27T17:30:33.198Z,2.17
2019-06-27T17:33:02.808Z,2.10
2019-06-27T17:35:32.404Z,2.25
2019-06-27T17:38:01.987Z,2.07
2019-06-27T17:40:31.577Z,2.25
2019-06-27T17:43:01.209Z,2.00
2019-06-27T17:45:30.811Z,2.20
2019-06-27T17:48:00.405Z,2.20
2019-06-27T17:50:30.319Z,2.27
2019-06-27T17:53:00.056Z,4.53
2019-06-27T17:55:29.813Z,4.33
2019-06-27T17:57:59.392Z,3.40
2019-06-27T18:00:28.979Z,3.40
2019-06-27T18:02:58.576Z,2.83
2019-06-27T18:05:28.245Z,2.73
2019-06-27T18:07:57.833Z,2.63
2019-06-27T18:10:27.421Z,2.70
2019-06-27T18:12:57.032Z,2.67
2019-06-27T18:15:26.651Z,2.80
2019-06-27T18:17:56.327Z,2.50
2019-06-27T18:20:25.914Z,2.73
2019-06-27T18:22:55.546Z,2.40
2019-06-27T18:25:25.113Z,2.47
2019-06-27T18:27:55.735Z,2.40
2019-06-27T18:30:26.379Z,2.70
2019-06-27T18:32:56.140Z,2.80
2019-06-27T18:35:25.728Z,3.43
2019-06-27T18:37:55.361Z,3.00
2019-06-27T18:40:25.059Z,3.80
2019-06-27T18:42:54.595Z,2.73
2019-06-27T18:45:24.190Z,2.40
2019-06-27T18:47:53.782Z,3.43
2019-06-27T18:50:23.377Z,2.70
2019-06-27T18:52:52.957Z,5.53
2019-06-27T18:55:22.555Z,2.83
2019-06-27T18:57:52.172Z,2.50
2019-06-27T19:00:21.904Z,2.40
2019-06-27T19:02:51.491Z,2.57
2019-06-27T19:05:21.096Z,2.50
2019-06-27T19:07:50.725Z,2.50
2019-06-27T19:10:21.455Z,3.43
2019-06-27T19:12:51.137Z,2.63
2019-06-27T19:15:20.924Z,2.90
2019-06-27T19:17:50.669Z,3.00
2019-06-27T19:20:33.707Z,2.73
2019-06-27T19:23:04.917Z,3.00
2019-06-27T19:25:36.193Z,2.57
2019-06-27T19:28:06.029Z,2.60
2019-06-27T19:30:35.629Z,2.53
2019-06-27T19:33:05.227Z,2.60
2019-06-27T19:35:34.825Z,2.40
2019-06-27T19:38:04.429Z,2.73
2019-06-27T19:40:34.082Z,3.50
2019-06-27T19:43:03.659Z,3.30
2019-06-27T19:45:33.346Z,3.27
2019-06-27T19:48:02.918Z,2.87
2019-06-27T19:50:32.590Z,2.40
2019-06-27T19:53:03.868Z,2.60
2019-06-27T19:55:33.457Z,2.90
2019-06-27T19:58:03.062Z,2.40
2019-06-27T20:00:32.780Z,2.60
2019-06-27T20:03:02.338Z,2.80
2019-06-27T20:05:31.919Z,2.63
2019-06-27T20:08:17.208Z,2.40
2019-06-27T20:10:32.822Z,2.20
2019-06-27T20:13:02.423Z,2.00
2019-06-27T20:15:32.017Z,2.00
2019-06-27T20:18:01.628Z,1.90
2019-06-27T20:20:31.210Z,1.77
2019-06-27T20:23:02.357Z,2.20
2019-06-27T20:25:31.918Z,1.97
2019-06-27T20:28:01.506Z,2.10
2019-06-27T20:30:33.309Z,2.27
2019-06-27T20:33:02.916Z,2.20
2019-06-27T20:35:32.563Z,2.00
2019-06-27T20:38:02.162Z,2.10
2019-06-27T20:40:31.980Z,1.93
2019-06-27T20:43:03.132Z,2.23
2019-06-27T20:45:32.882Z,2.23
2019-06-27T20:48:02.469Z,2.13
2019-06-27T20:50:32.075Z,2.13
2019-06-27T20:53:01.711Z,2.40
2019-06-27T20:55:31.541Z,2.10
2019-06-27T20:58:02.653Z,2.30
2019-06-27T21:00:32.250Z,1.80
2019-06-27T21:03:02.049Z,2.00
2019-06-27T21:05:31.757Z,2.20
2019-06-27T21:08:01.360Z,2.20
2019-06-27T21:10:32.190Z,1.90
2019-06-27T21:13:01.722Z,2.07
2019-06-27T21:15:31.316Z,2.10
2019-06-27T21:18:00.954Z,1.87
2019-06-27T21:20:30.702Z,1.90
2019-06-27T21:23:00.305Z,2.10
2019-06-27T21:25:29.891Z,1.90
2019-06-27T21:27:59.592Z,2.07
2019-06-27T21:30:30.413Z,2.43
2019-06-27T21:33:00.004Z,1.87
2019-06-27T21:35:29.603Z,2.00
2019-06-27T21:37:59.214Z,2.10
2019-06-27T21:40:28.872Z,1.93
2019-06-27T21:42:58.464Z,1.90
2019-06-27T21:45:28.043Z,2.10
2019-06-27T21:47:57.638Z,2.27
2019-06-27T21:50:27.261Z,2.47
2019-06-27T21:52:57.647Z,2.50
2019-06-27T21:55:27.305Z,2.40
2019-06-27T21:57:59.973Z,2.30
2019-06-27T22:00:30.836Z,2.07
2019-06-27T22:03:00.449Z,2.57
2019-06-27T22:05:30.041Z,2.50
2019-06-27T22:07:59.647Z,2.23
2019-06-27T22:10:29.233Z,2.40
2019-06-27T22:12:58.832Z,2.27
2019-06-27T22:15:28.494Z,1.90
2019-06-27T22:17:58.159Z,1.90
2019-06-27T22:20:27.811Z,2.00
2019-06-27T22:22:57.399Z,2.10
2019-06-27T22:25:39.788Z,2.40
2019-06-27T22:27:58.296Z,2.13
2019-06-27T22:30:28.234Z,2.20
2019-06-27T22:32:57.863Z,2.53
2019-06-27T22:35:27.443Z,2.03
2019-06-27T22:38:14.675Z,2.30
2019-06-27T22:41:02.478Z,2.00
2019-06-27T22:43:49.834Z,2.63
2019-06-27T22:46:36.888Z,2.07
2019-06-27T22:49:05.769Z,1.90
2019-06-27T22:51:35.125Z,2.30
2019-06-27T22:54:06.354Z,2.23
2019-06-27T22:56:35.936Z,1.83
2019-06-27T22:59:05.526Z,2.47
2019-06-27T23:01:35.124Z,2.10
2019-06-27T23:04:04.785Z,2.00
2019-06-27T23:06:34.385Z,2.30
2019-06-27T23:19:50.426Z,1.90
2019-06-27T23:22:20.015Z,2.40
2019-06-27T23:24:49.632Z,2.63
2019-06-27T23:27:19.222Z,2.13
2019-06-27T23:29:48.837Z,1.93
2019-06-27T23:32:18.427Z,2.10
2019-06-27T23:34:48.017Z,2.33
2019-06-27T23:37:17.626Z,2.43
2019-06-27T23:39:47.289Z,2.33
2019-06-27T23:42:16.911Z,2.20
2019-06-27T23:44:46.575Z,2.23
2019-06-27T23:47:16.180Z,2.00
2019-06-27T23:49:47.197Z,2.27
2019-06-27T23:52:16.826Z,2.30
2019-06-27T23:54:48.758Z,2.10
2019-06-27T23:57:18.345Z,2.43
2019-06-27T23:59:50.143Z,2.10
